Time;durP1;ratioP1;P1;durP2;ratioP2;P2;SDS_P1;SDS_P2;PMS_P1;PMS_P2;Temp;Humidity;BMP_temperature;BMP_pressure;BME280_temperature;BME280_humidity;BME280_pressure;Samples;Min_cycle;Max_cycle;Signal;HPM_P1;HPM_P2
2020/12/14 00:01:05;;;;;;;17.95;8.93;;;;;;;0.13;92.88;99515.25;3490262;28;20069;-41
2020/12/14 00:02:47;;;;;;;20.02;8.88;;;;;;;0.13;93.00;99511.81;3488195;28;20048;-41
2020/12/14 00:04:28;;;;;;;21.08;9.57;;;;;;;0.14;92.79;99514.44;3487529;28;20080;-41
2020/12/14 00:06:09;;;;;;;21.52;9.45;;;;;;;0.14;92.69;99519.56;3488188;28;20056;-41
2020/12/14 00:07:51;;;;;;;19.77;9.35;;;;;;;0.14;92.79;99513.59;3487283;28;20045;-42
2020/12/14 00:09:33;;;;;;;21.10;9.07;;;;;;;0.14;92.64;99514.44;3488741;28;20060;-42
2020/12/14 00:11:15;;;;;;;23.42;9.68;;;;;;;0.13;92.83;99514.38;3491878;28;20072;-41
2020/12/14 00:12:56;;;;;;;15.85;7.82;;;;;;;0.12;92.78;99520.25;3487120;28;20147;-47
2020/12/14 00:14:38;;;;;;;17.42;8.25;;;;;;;0.12;92.68;99526.25;3490524;28;20041;-47
2020/12/14 00:16:19;;;;;;;19.90;8.55;;;;;;;0.12;92.62;99523.69;3484254;28;20076;-47
2020/12/14 00:18:01;;;;;;;20.63;9.05;;;;;;;0.13;92.92;99519.47;3488564;28;20048;-47
2020/12/14 00:19:42;;;;;;;21.98;9.77;;;;;;;0.11;92.53;99521.94;3488953;28;20076;-49
2020/12/14 00:21:24;;;;;;;19.77;8.45;;;;;;;0.11;92.85;99521.94;3488722;28;20079;-47
2020/12/14 00:23:05;;;;;;;24.25;9.75;;;;;;;0.11;92.76;99521.06;3490905;28;20627;-46
2020/12/14 00:24:46;;;;;;;25.98;10.35;;;;;;;0.11;92.96;99519.38;3489948;28;20101;-48
2020/12/14 00:26:28;;;;;;;22.13;10.23;;;;;;;0.10;92.72;99520.19;3488825;28;20068;-47
2020/12/14 00:28:10;;;;;;;23.70;10.68;;;;;;;0.10;92.75;99520.19;3488566;28;20139;-41
2020/12/14 00:29:51;;;;;;;24.15;9.48;;;;;;;0.11;92.59;99524.47;3484867;28;20052;-49
2020/12/14 00:31:33;;;;;;;24.58;10.20;;;;;;;0.12;92.84;99525.34;3484757;28;20510;-41
2020/12/14 00:33:14;;;;;;;22.35;9.93;;;;;;;0.12;92.70;99525.34;3488351;28;20048;-41
2020/12/14 00:34:56;;;;;;;22.88;10.75;;;;;;;0.11;92.95;99521.94;3483426;28;20056;-47
2020/12/14 00:36:37;;;;;;;29.98;11.63;;;;;;;0.11;92.63;99521.06;3487314;28;21148;-47
2020/12/14 00:38:19;;;;;;;22.73;10.82;;;;;;;0.11;92.62;99518.53;3487768;28;20072;-47
2020/12/14 00:40:00;;;;;;;27.65;12.23;;;;;;;0.11;92.76;99521.06;3489078;28;20052;-46
2020/12/14 00:41:42;;;;;;;29.17;12.10;;;;;;;0.11;92.81;99526.16;3487879;28;20044;-46
2020/12/14 00:43:24;;;;;;;28.65;12.27;;;;;;;0.09;92.99;99522.66;3489413;28;20044;-46
2020/12/14 00:45:05;;;;;;;29.83;12.60;;;;;;;0.09;92.98;99525.22;3486487;28;20111;-47
2020/12/14 00:46:47;;;;;;;27.08;13.45;;;;;;;0.08;93.02;99526.88;3487089;28;20472;-47
2020/12/14 00:48:29;;;;;;;26.98;11.50;;;;;;;0.09;92.66;99522.66;3487385;28;20056;-47
2020/12/14 00:50:10;;;;;;;29.17;11.65;;;;;;;0.09;92.92;99522.66;3486748;28;20426;-47
2020/12/14 00:51:52;;;;;;;31.05;12.75;;;;;;;0.09;93.01;99523.53;3489912;28;20053;-48
2020/12/14 00:53:34;;;;;;;32.15;12.45;;;;;;;0.10;92.75;99519.31;3489242;28;20053;-40
2020/12/14 00:55:16;;;;;;;32.15;13.00;;;;;;;0.10;92.76;99516.75;3488172;28;20486;-42
2020/12/14 00:56:59;;;;;;;29.48;13.02;;;;;;;0.09;92.84;99510.78;3489255;28;20091;-41
2020/12/14 00:58:40;;;;;;;37.50;14.57;;;;;;;0.09;93.06;99517.56;3490968;28;20102;-46
2020/12/14 01:00:22;;;;;;;30.40;13.40;;;;;;;0.09;93.02;99526.09;3489242;28;20512;-46
2020/12/14 01:02:03;;;;;;;30.92;12.38;;;;;;;0.08;92.87;99521.75;3480486;28;20533;-45
2020/12/14 01:03:45;;;;;;;29.70;11.93;;;;;;;0.08;93.08;99524.31;3488538;28;20268;-41
2020/12/14 01:05:26;;;;;;;27.20;12.30;;;;;;;0.08;93.12;99519.22;3481665;28;20490;-41
2020/12/14 01:07:08;;;;;;;30.10;12.02;;;;;;;0.09;92.99;99515.88;3486147;28;20107;-46
2020/12/14 01:08:50;;;;;;;26.98;11.23;;;;;;;0.10;92.80;99520.19;3484334;28;20149;-46
2020/12/14 01:10:31;;;;;;;30.70;12.02;;;;;;;0.09;93.05;99517.56;3486057;28;20453;-42
2020/12/14 01:12:14;;;;;;;28.52;11.13;;;;;;;0.09;92.82;99520.13;3485477;28;20055;-41
2020/12/14 01:13:55;;;;;;;29.00;11.50;;;;;;;0.09;92.81;99520.13;3496027;28;20057;-41
2020/12/14 01:15:37;;;;;;;25.90;10.90;;;;;;;0.08;93.12;99519.22;3491251;28;20435;-47
2020/12/14 01:17:18;;;;;;;28.63;11.60;;;;;;;0.08;92.83;99524.31;3493274;28;20045;-47
2020/12/14 01:19:00;;;;;;;32.85;12.43;;;;;;;0.09;92.85;99515.00;3492530;28;20135;-46
2020/12/14 01:20:41;;;;;;;27.27;11.93;;;;;;;0.08;92.87;99519.22;3483275;28;20520;-41
2020/12/14 01:22:23;;;;;;;21.02;9.63;;;;;;;0.08;92.84;99516.66;3487069;28;20051;-41
2020/12/14 01:24:04;;;;;;;26.35;11.90;;;;;;;0.07;92.97;99521.72;3485333;28;20544;-46
2020/12/14 01:25:46;;;;;;;25.67;10.90;;;;;;;0.07;93.10;99519.16;3486081;28;20048;-46
2020/12/14 01:27:28;;;;;;;30.88;12.40;;;;;;;0.05;93.12;99508.88;3483923;28;20494;-41
2020/12/14 01:29:09;;;;;;;22.67;10.75;;;;;;;0.05;93.14;99511.44;3486940;28;20041;-46
2020/12/14 01:30:51;;;;;;;29.00;11.40;;;;;;;0.06;93.06;99505.50;3482824;28;20546;-48
2020/12/14 01:32:32;;;;;;;20.10;9.80;;;;;;;0.06;93.10;99510.63;3488022;28;20552;-46
2020/12/14 01:34:14;;;;;;;21.17;9.18;;;;;;;0.06;93.19;99512.28;3496328;28;20048;-46
2020/12/14 01:35:56;;;;;;;28.02;10.30;;;;;;;0.06;92.94;99515.72;3493390;28;20053;-46
2020/12/14 01:37:37;;;;;;;23.17;10.40;;;;;;;0.04;92.93;99509.66;3495547;28;20420;-47
2020/12/14 01:39:19;;;;;;;24.98;11.23;;;;;;;0.04;92.86;99518.19;3492437;28;20056;-46
2020/12/14 01:41:00;;;;;;;22.35;10.80;;;;;;;0.06;93.19;99509.75;3495960;28;20052;-41
2020/12/14 01:42:44;;;;;;;23.42;10.13;;;;;;;0.06;92.77;99505.50;3492799;28;20106;-41
2020/12/14 01:44:25;;;;;;;22.10;10.95;;;;;;;0.07;92.97;99516.63;3482403;28;20049;-41
2020/12/14 01:46:07;;;;;;;21.15;9.52;;;;;;;0.08;93.12;99508.16;3491073;28;20052;-41
2020/12/14 01:47:50;;;;;;;29.48;11.15;;;;;;;0.07;93.15;99506.41;3496172;28;20493;-41
2020/12/14 01:49:32;;;;;;;23.88;10.43;;;;;;;0.07;92.79;99508.97;3489628;28;20056;-47
2020/12/14 01:51:15;;;;;;;23.02;10.70;;;;;;;0.07;92.96;99507.28;3482074;28;20049;-46
2020/12/14 01:52:59;;;;;;;24.00;10.35;;;;;;;0.07;92.87;99503.88;3488512;28;20049;-41
2020/12/14 01:54:42;;;;;;;25.42;11.10;;;;;;;0.07;92.90;99509.84;3481881;28;20468;-44
2020/12/14 01:56:24;;;;;;;23.92;11.07;;;;;;;0.07;93.08;99509.84;3488013;28;20524;-41
2020/12/14 01:58:06;;;;;;;25.02;11.43;;;;;;;0.08;92.83;99509.00;3483822;28;20049;-42
2020/12/14 01:59:47;;;;;;;25.35;10.95;;;;;;;0.08;92.87;99513.25;3486681;28;20505;-41
2020/12/14 02:01:29;;;;;;;23.88;9.85;;;;;;;0.07;93.17;99506.41;3484042;28;20052;-43
2020/12/14 02:03:10;;;;;;;26.63;11.15;;;;;;;0.08;93.06;99511.56;3487605;28;20053;-41
2020/12/14 02:04:52;;;;;;;21.23;10.32;;;;;;;0.09;93.08;99507.38;3482223;28;20509;-41
2020/12/14 02:06:33;;;;;;;20.05;10.30;;;;;;;0.11;93.17;99510.88;3495337;28;20429;-47
2020/12/14 02:08:14;;;;;;;22.20;10.10;;;;;;;0.11;93.12;99514.28;3492132;28;20067;-42
2020/12/14 02:09:56;;;;;;;24.15;11.27;;;;;;;0.11;92.83;99515.97;3485151;28;20155;-46
2020/12/14 02:11:37;;;;;;;23.95;10.73;;;;;;;0.10;93.03;99515.09;3484197;28;20041;-41
2020/12/14 02:13:20;;;;;;;20.58;10.10;;;;;;;0.10;92.71;99510.00;3495258;28;20055;-42
2020/12/14 02:15:01;;;;;;;20.80;10.30;;;;;;;0.09;92.69;99513.34;3492238;28;20056;-42
2020/12/14 02:16:43;;;;;;;26.92;11.07;;;;;;;0.09;92.71;99515.88;3484095;28;20049;-43
2020/12/14 02:18:24;;;;;;;22.50;10.13;;;;;;;0.07;92.71;99514.94;3487069;28;20045;-42
2020/12/14 02:20:06;;;;;;;19.17;9.48;;;;;;;0.09;92.75;99525.22;3483076;28;20087;-46
2020/12/14 02:21:49;;;;;;;22.80;11.05;;;;;;;0.09;93.01;99518.44;3486270;28;20045;-47
2020/12/14 02:23:30;;;;;;;24.15;9.40;;;;;;;0.09;92.69;99518.44;3481877;28;20511;-47
2020/12/14 02:25:12;;;;;;;21.77;10.43;;;;;;;0.09;92.86;99518.44;3487667;28;20078;-47
2020/12/14 02:26:54;;;;;;;24.88;9.70;;;;;;;0.11;92.96;99521.06;3483361;28;20053;-47
2020/12/14 02:28:36;;;;;;;23.48;9.77;;;;;;;0.09;92.76;99523.53;3486414;28;20070;-47
2020/12/14 02:30:17;;;;;;;22.05;10.55;;;;;;;0.10;93.03;99520.19;3495834;28;20091;-42
2020/12/14 02:31:59;;;;;;;23.25;10.77;;;;;;;0.11;92.84;99515.97;3493707;28;20049;-48
2020/12/14 02:33:40;;;;;;;21.92;9.65;;;;;;;0.10;92.82;99512.56;3482079;28;20045;-47
2020/12/14 02:35:22;;;;;;;19.38;9.70;;;;;;;0.10;92.79;99514.19;3487968;28;20087;-46
2020/12/14 02:37:03;;;;;;;21.70;10.30;;;;;;;0.09;92.65;99520.97;3496929;28;20074;-43
2020/12/14 02:38:45;;;;;;;21.67;8.68;;;;;;;0.09;92.93;99515.00;3494410;28;20044;-47
2020/12/14 02:40:27;;;;;;;20.10;9.43;;;;;;;0.08;92.72;99514.13;3484256;28;20052;-47
2020/12/14 02:42:10;;;;;;;23.80;10.50;;;;;;;0.08;92.53;99516.66;3489336;28;20529;-42
2020/12/14 02:43:52;;;;;;;21.45;9.27;;;;;;;0.08;92.82;99508.16;3484339;28;20064;-41
2020/12/14 02:45:34;;;;;;;20.20;10.05;;;;;;;0.08;92.50;99508.16;3494525;28;20048;-47
2020/12/14 02:47:16;;;;;;;19.98;9.38;;;;;;;0.08;92.71;99510.69;3497586;28;20053;-48
2020/12/14 02:48:57;;;;;;;19.52;9.63;;;;;;;0.08;92.51;99503.03;3489610;28;20090;-44
2020/12/14 02:50:39;;;;;;;22.27;10.30;;;;;;;0.06;92.46;99508.06;3483748;28;20048;-43
2020/12/14 02:52:20;;;;;;;21.90;9.95;;;;;;;0.07;92.46;99514.06;3489849;28;20319;-47
2020/12/14 02:54:02;;;;;;;20.25;9.27;;;;;;;0.07;92.49;99511.50;3485454;28;20107;-47
2020/12/14 02:55:44;;;;;;;26.35;10.20;;;;;;;0.06;92.61;99510.63;3495505;28;20048;-46
2020/12/14 02:57:25;;;;;;;20.40;10.15;;;;;;;0.07;92.70;99514.06;3497042;28;20454;-47
2020/12/14 02:59:06;;;;;;;20.45;10.10;;;;;;;0.07;92.53;99519.16;3495776;28;20056;-47
2020/12/14 03:00:48;;;;;;;21.65;10.20;;;;;;;0.07;92.81;99517.47;3495124;28;20067;-41
2020/12/14 03:02:29;;;;;;;24.73;10.80;;;;;;;0.07;92.82;99514.94;3488610;28;20084;-46
2020/12/14 03:04:11;;;;;;;22.70;9.60;;;;;;;0.06;92.73;99513.16;3484242;28;20045;-42
2020/12/14 03:05:52;;;;;;;21.48;10.07;;;;;;;0.06;92.58;99514.84;3488699;28;20581;-41
2020/12/14 03:07:33;;;;;;;23.95;10.35;;;;;;;0.07;92.71;99511.50;3484975;28;20052;-47
2020/12/14 03:09:17;;;;;;;18.20;8.88;;;;;;;0.06;92.67;99512.28;3497357;28;20405;-46
2020/12/14 03:10:59;;;;;;;;;;;;;;;0.04;92.65;99507.97;3496033;28;20107;-41
2020/12/14 03:12:41;;;;;;;19.50;9.23;;;;;;;0.06;92.81;99513.16;3486548;28;19932;-46
2020/12/14 03:14:22;;;;;;;20.33;9.50;;;;;;;0.06;92.82;99514.84;3487260;28;20041;-48
2020/12/14 03:16:04;;;;;;;23.23;10.32;;;;;;;0.07;92.86;99507.28;3491271;28;20156;-47
2020/12/14 03:17:45;;;;;;;22.45;9.63;;;;;;;0.06;92.96;99512.28;3487496;28;20079;-41
2020/12/14 03:19:27;;;;;;;16.15;8.85;;;;;;;0.06;92.57;99520.81;3497542;28;20060;-46
2020/12/14 03:21:08;;;;;;;23.20;10.05;;;;;;;0.07;92.87;99516.63;3495105;28;20040;-47
2020/12/14 03:22:50;;;;;;;20.73;9.45;;;;;;;0.08;92.85;99518.34;3496555;28;20060;-47
2020/12/14 03:24:31;;;;;;;20.02;8.90;;;;;;;0.07;92.71;99514.94;3496418;28;20044;-46
2020/12/14 03:26:16;;;;;;;20.58;10.38;;;;;;;0.07;92.79;99520.03;3494672;28;20102;-41
2020/12/14 03:27:58;;;;;;;21.48;10.18;;;;;;;0.08;92.84;99510.69;3494571;28;20131;-41
2020/12/14 03:29:39;;;;;;;19.58;10.15;;;;;;;0.09;92.69;99512.47;3497735;28;20076;-47
2020/12/14 03:31:21;;;;;;;22.65;10.77;;;;;;;0.09;92.91;99520.97;3494807;28;20068;-41
2020/12/14 03:33:03;;;;;;;24.13;10.05;;;;;;;0.10;92.72;99512.56;3497369;28;20126;-47
2020/12/14 03:34:44;;;;;;;21.58;9.52;;;;;;;0.10;92.91;99510.00;3494483;28;20094;-41
2020/12/14 03:36:26;;;;;;;21.33;9.65;;;;;;;0.10;92.67;99504.91;3497454;28;20056;-41
2020/12/14 03:38:07;;;;;;;19.73;9.35;;;;;;;0.10;92.73;99514.19;3493510;28;20076;-40
2020/12/14 03:39:48;;;;;;;16.90;7.80;;;;;;;0.09;92.79;99513.34;3497462;28;20048;-47
2020/12/14 03:41:30;;;;;;;19.15;8.70;;;;;;;0.09;92.80;99512.47;3490589;28;20425;-42
2020/12/14 03:43:12;;;;;;;21.98;8.82;;;;;;;0.09;92.83;99515.00;3483475;28;20505;-41
2020/12/14 03:44:53;;;;;;;18.15;8.25;;;;;;;0.09;92.77;99518.44;3489369;28;20583;-41
2020/12/14 03:46:35;;;;;;;18.55;8.63;;;;;;;0.09;92.53;99520.13;3483472;28;20060;-42
2020/12/14 03:48:17;;;;;;;18.60;8.60;;;;;;;0.09;92.85;99512.47;3490463;28;20409;-49
2020/12/14 03:49:58;;;;;;;18.10;9.57;;;;;;;0.08;92.80;99518.34;3497490;28;20056;-48
2020/12/14 03:51:39;;;;;;;20.75;9.48;;;;;;;0.10;92.67;99514.19;3489996;28;20076;-43
2020/12/14 03:53:21;;;;;;;16.38;8.43;;;;;;;0.10;92.54;99520.19;3483642;28;20083;-42
2020/12/14 03:55:03;;;;;;;19.70;8.35;;;;;;;0.08;92.71;99511.56;3490839;28;20053;-44
2020/12/14 03:56:45;;;;;;;20.58;9.07;;;;;;;0.08;92.69;99514.13;3483336;28;20528;-42
2020/12/14 03:58:26;;;;;;;14.18;8.10;;;;;;;0.09;92.37;99520.97;3492879;28;20049;-50
2020/12/14 04:00:08;;;;;;;14.32;7.90;;;;;;;0.09;92.51;99520.13;3496690;28;20049;-48
2020/12/14 04:01:54;;;;;;;20.00;8.75;;;;;;;0.09;92.70;99520.97;3489011;28;20134;-48
2020/12/14 04:03:36;;;;;;;19.35;8.90;;;;;;;0.10;92.69;99527.84;3484058;28;20076;-48
2020/12/14 04:05:17;;;;;;;18.35;9.38;;;;;;;0.10;92.43;99517.66;3494628;28;20048;-47
2020/12/14 04:06:58;;;;;;;14.70;7.75;;;;;;;0.10;92.64;99521.84;3494969;28;20069;-51
2020/12/14 04:08:40;;;;;;;16.38;8.02;;;;;;;0.09;92.50;99515.88;3488099;28;20095;-44
2020/12/14 04:10:21;;;;;;;16.98;9.05;;;;;;;0.09;92.57;99522.66;3484204;28;20125;-42
2020/12/14 04:12:04;;;;;;;16.00;8.05;;;;;;;0.07;92.27;99514.94;3495677;28;20459;-44
2020/12/14 04:13:47;;;;;;;15.90;7.75;;;;;;;0.06;92.65;99513.16;3494325;28;20076;-42
2020/12/14 04:15:28;;;;;;;18.02;7.82;;;;;;;0.07;92.40;99514.94;3495500;28;20072;-44
2020/12/14 04:17:10;;;;;;;14.65;7.78;;;;;;;0.06;92.57;99519.94;3488297;28;20048;-43
2020/12/14 04:18:51;;;;;;;16.25;8.10;;;;;;;0.06;92.31;99518.25;3494480;28;20044;-46
2020/12/14 04:20:33;;;;;;;18.00;8.07;;;;;;;0.06;92.32;99520.81;3493398;28;20080;-49
2020/12/14 04:22:14;;;;;;;18.95;8.93;;;;;;;0.07;92.44;99522.59;3495526;28;20059;-47
2020/12/14 04:23:55;;;;;;;18.60;8.52;;;;;;;0.07;92.50;99531.91;3493195;28;20055;-50
2020/12/14 04:25:37;;;;;;;19.73;9.23;;;;;;;0.09;92.56;99535.41;3490549;28;20502;-42
2020/12/14 04:27:19;;;;;;;16.17;8.13;;;;;;;0.09;92.30;99535.41;3487539;28;20041;-47
2020/12/14 04:29:01;;;;;;;16.02;7.88;;;;;;;0.08;92.43;99526.00;3484886;28;20048;-50
2020/12/14 04:30:42;;;;;;;17.65;8.52;;;;;;;0.10;92.40;99534.59;3486225;28;20079;-42
2020/12/14 04:32:24;;;;;;;15.75;8.40;;;;;;;0.10;92.35;99537.16;3484098;28;20059;-43
2020/12/14 04:34:05;;;;;;;22.80;8.68;;;;;;;0.09;92.52;99532.88;3488712;28;20044;-41
2020/12/14 04:35:46;;;;;;;15.65;7.53;;;;;;;0.09;92.20;99537.97;3494365;28;20095;-48
2020/12/14 04:37:28;;;;;;;19.17;8.45;;;;;;;0.08;92.34;99542.16;3494643;28;20040;-50
2020/12/14 04:39:09;;;;;;;17.10;7.78;;;;;;;0.08;92.53;99546.41;3490026;28;20048;-43
2020/12/14 04:40:51;;;;;;;16.58;7.82;;;;;;;0.08;92.26;99547.25;3492998;28;20049;-43
2020/12/14 04:42:34;;;;;;;17.92;8.52;;;;;;;0.09;92.29;99541.38;3485559;28;20127;-45
2020/12/14 04:44:15;;;;;;;17.90;8.10;;;;;;;0.09;92.23;99545.63;3492667;28;20095;-45
2020/12/14 04:46:02;;;;;;;15.57;7.97;;;;;;;0.08;92.35;99543.84;3484140;28;20049;-48
2020/12/14 04:47:44;;;;;;;20.33;9.20;;;;;;;0.09;92.24;99546.47;3488733;28;20582;-47
2020/12/14 04:49:26;;;;;;;14.35;6.90;;;;;;;0.09;92.18;99543.06;3496600;28;20052;-48
2020/12/14 04:51:07;;;;;;;13.32;6.78;;;;;;;0.09;92.24;99543.06;3493888;28;20513;-47
2020/12/14 04:52:49;;;;;;;14.82;6.88;;;;;;;0.09;92.32;99543.06;3496873;28;20056;-43
2020/12/14 04:54:31;;;;;;;15.88;7.47;;;;;;;0.09;92.00;99537.97;3493572;28;20045;-48
2020/12/14 04:56:17;;;;;;;14.13;7.72;;;;;;;0.08;92.06;99549.81;3496561;28;20048;-48
2020/12/14 04:57:59;;;;;;;15.18;7.70;;;;;;;0.08;92.21;99546.41;3490466;28;20068;-43
2020/12/14 04:59:40;;;;;;;13.88;7.65;;;;;;;0.07;92.22;99553.19;3496257;28;20057;-42
2020/12/14 05:01:22;;;;;;;16.02;8.00;;;;;;;0.07;92.08;99558.28;3490710;28;20045;-43
2020/12/14 05:03:07;;;;;;;16.92;9.10;;;;;;;0.06;92.40;99561.63;3482617;28;20048;-44
2020/12/14 05:04:49;;;;;;;16.52;8.23;;;;;;;0.07;92.32;99570.16;3491287;28;20044;-43
2020/12/14 05:06:48;;;;;;;14.10;7.15;;;;;;;0.07;92.42;99565.06;3496434;28;20494;-44
2020/12/14 05:08:30;;;;;;;14.18;7.75;;;;;;;0.07;92.14;99563.38;3486093;28;20114;-44
2020/12/14 05:10:12;;;;;;;15.10;8.45;;;;;;;0.08;92.04;99569.34;3484047;28;20134;-42
2020/12/14 05:11:54;;;;;;;16.88;8.15;;;;;;;0.08;92.39;99564.25;3493780;28;20564;-47
2020/12/14 05:13:36;;;;;;;17.85;8.43;;;;;;;0.08;92.17;99577.00;3494142;28;20052;-49
2020/12/14 05:15:22;;;;;;;18.35;9.45;;;;;;;0.07;92.35;99573.59;3496101;28;20052;-50
2020/12/14 05:17:03;;;;;;;18.05;9.63;;;;;;;0.07;92.38;99580.38;3485612;28;20447;-47
2020/12/14 05:18:45;;;;;;;16.45;8.00;;;;;;;0.07;92.02;99583.78;3495194;28;20072;-42
2020/12/14 05:20:26;;;;;;;17.48;8.52;;;;;;;0.07;92.11;99582.91;3493880;28;20102;-48
2020/12/14 05:22:07;;;;;;;17.48;9.20;;;;;;;0.06;91.95;99583.69;3496015;28;20106;-48
2020/12/14 05:24:00;;;;;;;18.33;8.75;;;;;;;0.04;92.19;99579.38;3494008;28;20086;-50
2020/12/14 05:25:42;;;;;;;20.30;8.75;;;;;;;0.04;92.25;99576.84;3490344;28;20421;-49
2020/12/14 05:27:32;;;;;;;19.38;9.40;;;;;;;0.04;92.34;99578.50;3487564;28;20072;-49
2020/12/14 05:29:27;;;;;;;16.75;8.90;;;;;;;0.03;92.28;99576.75;3482344;28;20053;-42
2020/12/14 05:31:18;;;;;;;20.45;9.45;;;;;;;0.02;92.04;99578.44;3488902;28;20056;-44
2020/12/14 05:33:00;;;;;;;17.25;8.68;;;;;;;0.03;92.38;99582.75;3482243;28;20084;-42
2020/12/14 05:34:42;;;;;;;20.05;9.48;;;;;;;0.04;92.30;99583.63;3492930;28;20505;-50
2020/12/14 05:36:24;;;;;;;23.40;9.77;;;;;;;0.04;92.13;99587.03;3494108;28;20044;-49
2020/12/14 05:38:24;;;;;;;18.70;8.65;;;;;;;0.03;92.42;99582.75;3494126;28;20071;-47
2020/12/14 05:40:10;;;;;;;22.85;9.80;;;;;;;0.03;92.42;99592.94;3493262;28;20049;-50
2020/12/14 05:41:52;;;;;;;25.02;10.80;;;;;;;0.02;92.00;99588.63;3494830;28;20052;-49
2020/12/14 05:43:34;;;;;;;21.67;9.20;;;;;;;0.02;91.99;99592.84;3494784;28;20517;-54
2020/12/14 05:45:16;;;;;;;19.83;9.80;;;;;;;0.02;92.13;99590.31;3483148;28;20060;-46
2020/12/14 05:46:58;;;;;;;19.42;9.48;;;;;;;0.02;92.37;99596.28;3486910;28;20076;-53
2020/12/14 05:48:39;;;;;;;24.48;9.88;;;;;;;0.02;92.30;99596.28;3484167;28;20053;-42
2020/12/14 05:50:21;;;;;;;24.63;9.82;;;;;;;0.03;92.12;99607.34;3486531;28;20052;-42
2020/12/14 05:52:04;;;;;;;23.00;9.77;;;;;;;0.03;92.44;99610.78;3494651;28;20055;-44
2020/12/14 05:53:51;;;;;;;22.73;10.18;;;;;;;0.04;92.31;99607.44;3491179;28;20048;-49
2020/12/14 05:55:34;;;;;;;17.33;9.15;;;;;;;0.05;92.31;99613.44;3482187;28;20056;-49
2020/12/14 05:57:27;;;;;;;21.92;9.98;;;;;;;0.04;92.38;99615.09;3486660;28;20051;-49
2020/12/14 05:59:10;;;;;;;21.50;9.73;;;;;;;0.05;92.17;99615.97;3482135;28;20056;-43
2020/12/14 06:00:53;;;;;;;21.48;8.98;;;;;;;0.04;92.17;99612.53;3491613;28;20581;-43
2020/12/14 06:02:35;;;;;;;20.20;10.55;;;;;;;0.03;92.37;99608.25;3495602;28;20615;-44
2020/12/14 06:04:20;;;;;;;21.88;9.15;;;;;;;0.05;92.24;99613.44;3493556;28;20044;-43
2020/12/14 06:06:04;;;;;;;23.33;11.05;;;;;;;0.04;92.55;99615.09;3493910;28;20060;-43
2020/12/14 06:07:59;;;;;;;22.08;10.40;;;;;;;0.04;92.44;99621.88;3493985;28;20051;-45
2020/12/14 06:09:43;;;;;;;24.20;11.15;;;;;;;0.05;92.33;99626.19;3494431;28;20441;-43
2020/12/14 06:11:26;;;;;;;22.50;10.50;;;;;;;0.06;92.42;99627.91;3485279;28;20064;-43
2020/12/14 06:13:09;;;;;;;20.23;10.57;;;;;;;0.07;92.26;99632.25;3490609;28;20091;-43
2020/12/14 06:14:58;;;;;;;22.42;10.93;;;;;;;0.07;92.24;99633.91;3490668;28;20044;-42
2020/12/14 06:16:46;;;;;;;25.23;10.05;;;;;;;0.07;92.32;99632.25;3493078;28;20044;-52
2020/12/14 06:18:33;;;;;;;20.90;10.70;;;;;;;0.07;92.35;99632.25;3498116;28;20420;-49
2020/12/14 06:20:16;;;;;;;24.33;11.48;;;;;;;0.07;92.36;99636.47;3495705;28;20489;-52
2020/12/14 06:22:02;;;;;;;27.27;11.40;;;;;;;0.07;92.27;99633.91;3498110;28;20048;-50
2020/12/14 06:23:45;;;;;;;25.08;11.13;;;;;;;0.06;92.57;99627.91;3490702;28;20049;-43
2020/12/14 06:25:27;;;;;;;26.98;11.20;;;;;;;0.07;92.25;99634.78;3486804;28;20272;-45
2020/12/14 06:27:09;;;;;;;25.55;11.60;;;;;;;0.06;92.13;99635.56;3491569;28;20052;-46
2020/12/14 06:28:52;;;;;;;23.80;11.52;;;;;;;0.07;92.23;99636.47;3489347;28;20052;-42
2020/12/14 06:30:34;;;;;;;26.83;14.20;;;;;;;0.06;92.46;99635.56;3493233;28;20417;-42
2020/12/14 06:32:37;;;;;;;25.65;11.25;;;;;;;0.06;92.31;99638.13;3488884;28;20049;-43
2020/12/14 06:34:40;;;;;;;27.48;12.10;;;;;;;0.07;92.16;99636.47;3491209;28;20054;-43
2020/12/14 06:36:22;;;;;;;42.92;11.82;;;;;;;0.06;92.27;99625.38;3492000;28;20052;-42
2020/12/14 06:38:04;;;;;;;25.27;11.23;;;;;;;0.07;91.97;99626.28;3486901;28;20044;-42
2020/12/14 06:39:47;;;;;;;23.02;11.07;;;;;;;0.07;92.20;99626.28;3491331;28;20059;-48
2020/12/14 06:41:31;;;;;;;24.75;11.68;;;;;;;0.06;92.11;99625.38;3489335;28;20065;-49
2020/12/14 06:43:28;;;;;;;25.23;12.20;;;;;;;0.06;92.00;99622.81;3489058;28;20509;-48
2020/12/14 06:45:12;;;;;;;26.33;11.10;;;;;;;0.04;92.21;99620.19;3489768;28;20098;-50
2020/12/14 06:46:59;;;;;;;28.08;12.40;;;;;;;0.06;92.37;99622.81;3491332;28;20481;-49
2020/12/14 06:48:44;;;;;;;26.27;12.05;;;;;;;0.04;92.21;99625.28;3491223;28;20048;-50
2020/12/14 06:50:27;;;;;;;27.52;12.25;;;;;;;0.06;92.18;99624.50;3493178;28;20049;-52
2020/12/14 06:52:08;;;;;;;25.88;11.85;;;;;;;0.05;92.03;99623.63;3495094;28;20053;-48
2020/12/14 06:53:52;;;;;;;29.50;13.38;;;;;;;0.06;92.15;99630.47;3488974;28;20095;-49
2020/12/14 06:55:47;;;;;;;27.60;13.93;;;;;;;0.06;92.41;99627.06;3486719;28;20098;-49
2020/12/14 06:57:37;;;;;;;31.63;13.50;;;;;;;0.07;92.37;99624.59;3490611;28;20055;-50
2020/12/14 06:59:29;;;;;;;34.60;14.02;;;;;;;0.08;92.11;99628.00;3488065;28;20048;-48
2020/12/14 07:01:36;;;;;;;33.08;13.52;;;;;;;0.08;92.30;99630.56;3492859;28;20105;-46
2020/12/14 07:03:29;;;;;;;29.25;13.07;;;;;;;0.08;92.07;99621.22;3489840;28;20481;-47
2020/12/14 07:05:33;;;;;;;31.95;13.88;;;;;;;0.07;92.31;99621.16;3490620;28;20094;-43
2020/12/14 07:07:30;;;;;;;29.17;14.40;;;;;;;0.07;92.26;99621.16;3491633;28;20052;-44
2020/12/14 07:09:28;;;;;;;30.90;13.90;;;;;;;0.07;92.16;99623.72;3488781;28;20080;-44
2020/12/14 07:11:18;;;;;;;33.35;13.45;;;;;;;0.06;92.00;99624.50;3488037;28;20129;-47
2020/12/14 07:13:00;;;;;;;28.38;13.15;;;;;;;0.06;92.05;99624.50;3487833;28;20044;-43
2020/12/14 07:14:52;;;;;;;30.92;12.77;;;;;;;0.08;92.27;99630.56;3491140;28;20080;-45
2020/12/14 07:16:33;;;;;;;31.40;13.95;;;;;;;0.09;92.42;99632.31;3490213;28;20064;-44
2020/12/14 07:18:21;;;;;;;33.08;13.57;;;;;;;0.10;92.47;99632.41;3489551;28;20128;-43
2020/12/14 07:20:03;;;;;;;31.33;14.35;;;;;;;0.10;92.33;99637.53;3488209;28;20125;-44
2020/12/14 07:21:53;;;;;;;28.20;12.15;;;;;;;0.12;92.46;99641.03;3490331;28;20045;-43
2020/12/14 07:23:35;;;;;;;25.50;11.05;;;;;;;0.14;92.34;99641.09;3491823;28;20045;-44
2020/12/14 07:25:21;;;;;;;25.17;12.35;;;;;;;0.14;92.25;99647.09;3488401;28;20072;-44
2020/12/14 07:27:03;;;;;;;28.58;13.65;;;;;;;0.15;92.13;99647.94;3490050;28;20088;-49
2020/12/14 07:28:47;;;;;;;32.55;14.05;;;;;;;0.17;92.41;99648.91;3488325;28;20045;-49
2020/12/14 07:30:28;;;;;;;;;;;;;;;0.17;92.37;99642.16;3489488;28;20060;-49
2020/12/14 07:32:09;;;;;;;24.77;12.98;;;;;;;0.19;92.14;99649.91;3489280;28;19968;-50
2020/12/14 07:33:55;;;;;;;29.27;13.98;;;;;;;0.20;92.32;99647.41;3487603;28;20084;-49
2020/12/14 07:35:38;;;;;;;26.98;12.27;;;;;;;0.22;92.08;99656.03;3490175;28;20056;-49
2020/12/14 07:37:21;;;;;;;31.70;14.15;;;;;;;0.22;91.97;99665.34;3490224;28;20048;-43
2020/12/14 07:39:03;;;;;;;26.63;12.38;;;;;;;0.22;92.14;99662.78;3487852;28;20496;-43
2020/12/14 07:40:44;;;;;;;31.23;14.10;;;;;;;0.21;92.17;99668.72;3489083;28;20091;-44
2020/12/14 07:42:27;;;;;;;31.10;13.90;;;;;;;0.22;92.21;99665.34;3488842;28;20052;-45
2020/12/14 07:44:09;;;;;;;28.25;13.82;;;;;;;0.22;91.92;99673.91;3489045;28;20497;-48
2020/12/14 07:45:50;;;;;;;29.92;12.80;;;;;;;0.23;92.15;99669.66;3491389;28;20080;-48
2020/12/14 07:47:32;;;;;;;26.00;12.73;;;;;;;0.22;92.19;99673.00;3486921;28;20053;-48
2020/12/14 07:49:15;;;;;;;27.58;12.23;;;;;;;0.22;92.12;99673.91;3488902;28;20106;-42
2020/12/14 07:51:06;;;;;;;28.08;13.18;;;;;;;0.23;91.89;99674.75;3489502;28;20110;-42
2020/12/14 07:52:49;;;;;;;25.85;12.65;;;;;;;0.23;92.08;99673.09;3487586;28;20048;-42
2020/12/14 07:54:31;;;;;;;25.70;12.05;;;;;;;0.25;91.96;99678.28;3488500;28;20053;-43
2020/12/14 07:56:14;;;;;;;26.95;12.30;;;;;;;0.26;91.86;99676.59;3489522;28;20064;-43
2020/12/14 07:57:55;;;;;;;25.90;11.75;;;;;;;0.26;92.21;99682.59;3489594;28;20536;-42
2020/12/14 07:59:37;;;;;;;28.70;12.75;;;;;;;0.25;91.71;99682.50;3489873;28;20057;-42
2020/12/14 08:01:19;;;;;;;26.77;13.07;;;;;;;0.26;91.58;99689.34;3488012;28;20048;-42
2020/12/14 08:03:02;;;;;;;25.77;11.85;;;;;;;0.25;91.90;99683.38;3491647;28;20144;-42